CodeNameFirst purchased atOnCurrent priceGain/lossTotal invested
MMM 3M Co $156.44 $156.44 0% $0.00
AOS A. O. Smith Corp $47.50 $47.50 0% $0.00
ABT Abbott Laboratories $76.57 2020-04-02 06:40:46 $94.92 23.96% $9,954.10
ABBV AbbVie Inc $92.67 2020-04-02 06:40:46 $92.67 0% $0.00
ABMD ABIOMED, Inc. $223.90 2020-04-02 06:40:46 $223.90 0% $0.00
ACN Accenture Plc $201.62 2020-04-02 06:40:46 $201.62 0% $0.00
ATVI Activision Blizzard, Inc. $60.70 2020-01-08 09:51:01 $71.98 18.58% $607.00
ADBE Adobe Inc $386.60 2020-01-08 09:51:01 $386.60 0% $0.00
AAP Advance Auto Parts, Inc. $139.32 2020-01-08 09:51:01 $139.32 0% $0.00
AMD Advanced Micro Devices, Inc. $47.67 2020-01-08 09:51:27 $53.80 12.86% $476.70
AES AES Corp $12.49 2020-01-08 09:51:27 $12.49 0% $0.00
AMG Affiliated Managers Group, Inc. $66.62 2020-01-08 09:51:27 $66.62 0% $0.00
AFL AFLAC Incorporated $36.47 2020-01-08 09:51:27 $36.47 0% $0.00
A Agilent Technologies Inc $88.14 2020-01-08 09:51:27 $88.14 0% $0.00
APD Air Products & Chemicals, Inc. $241.65 2020-01-08 09:51:27 $241.65 0% $0.00
AKAM Akamai Technologies, Inc. $105.80 2020-01-08 09:51:27 $105.80 0% $0.00
ALK Alaska Air Group, Inc. $34.19 2020-01-08 09:51:27 $34.19 0% $0.00
ALB Albemarle Corporation $83.25 2020-02-11 02:52:52 $76.52 -8.08% -$1,129.14
ARE Alexandria Real Estate Equities Inc $153.72 2020-02-11 02:52:52 $153.72 0% $0.00
ALXN Alexion Pharmaceuticals, Inc. $119.90 2020-02-11 02:52:52 $119.90 0% $0.00
ALGN Align Technology, Inc. $245.62 2020-02-11 02:52:52 $245.62 0% $0.00
ALLE Allegion PLC $99.70 2020-02-11 02:52:52 $99.70 0% $0.00
AGN Allergan plc $0.30 2020-02-11 02:52:52 $0.30 0% $0.00
ADS Alliance Data Systems Corporation $46.33 2020-02-11 02:52:52 $46.33 0% $0.00
LNT Alliant Energy Corporation $49.36 2020-02-11 02:52:52 $49.36 0% $0.00
ALL Allstate Corp $97.81 2020-02-11 02:52:52 $97.81 0% $0.00
GOOGL Alphabet Inc Class A $1,117.03 2020-04-03 03:12:21 $1,433.52 28.33% $78,912.86
GOOG Alphabet Inc Class C $1,428.92 2020-04-03 03:12:21 $1,428.92 0% $0.00
MO Altria Group Inc $39.05 2020-04-03 03:12:21 $39.05 0% $0.00
AMZN Amazon.com, Inc. $1,847.84 2020-01-02 05:40:03 $2,442.37 32.17% $34,634.66
AEE Ameren Corp $74.73 2020-01-02 05:40:03 $74.73 0% $0.00
AAL American Airlines Group Inc $10.50 2020-01-02 05:40:03 $10.50 0% $0.00
AEP American Electric Power Company Inc $85.25 2020-01-02 05:40:03 $85.25 0% $0.00
AXP American Express Company $95.07 2020-01-02 05:40:03 $95.07 0% $0.00
AIG American International Group Inc $30.06 2020-01-02 05:40:03 $30.06 0% $0.00
AMT American Tower Corp $258.17 2020-01-02 05:40:03 $258.17 0% $0.00
AWK American Water Works Company Inc $127.00 2020-01-02 05:40:03 $127.00 0% $0.00
AMP Ameriprise Financial, Inc. $140.07 2020-01-02 05:40:03 $140.07 0% $0.00
ABC AmerisourceBergen Corp. $95.34 2020-01-02 05:40:03 $95.34 0% $0.00
AME AMETEK, Inc. $91.71 2020-01-02 05:40:03 $91.71 0% $0.00
AMGN Amgen, Inc. $229.70 2020-01-02 05:40:03 $229.70 0% $0.00
APH Amphenol Corporation $96.56 2020-01-02 05:40:03 $96.56 0% $0.00
APC Anadarko Petroleum Corporation $0.10 2020-01-02 05:40:03 $0.10 0% $0.00
ADI Analog Devices, Inc. $112.95 2020-01-02 05:40:03 $112.95 0% $0.00
ANSS ANSYS, Inc. $283.00 2020-01-02 05:40:03 $283.00 0% $0.00
ANTM Anthem Inc $294.11 2020-01-02 05:40:03 $294.11 0% $0.00
AON Aon PLC $196.95 2020-01-02 05:40:03 $196.95 0% $0.00
APA Apache Corporation $10.79 2020-01-02 05:40:03 $10.79 0% $0.00
AIV Apartment Investment and Management Co $36.87 2020-01-02 05:40:03 $36.87 0% $0.00
AAPL Apple Inc. $326.79 2020-01-29 14:22:55 $317.94 -2.71% $1,633.95
AMAT Applied Materials, Inc. $61.70 2020-01-08 09:52:30 $56.18 -8.95% $308.50
APTV Aptiv PLC $75.35 2020-01-08 09:52:30 $75.35 0% $0.00
ADM Archer Daniels Midland Co $39.31 2020-01-08 09:52:30 $39.31 0% $0.00
ARNC Arconic Inc $14.47 2020-01-08 09:52:30 $14.47 0% $0.00
ANET Arista Networks Inc $233.46 2020-01-08 09:52:30 $233.46 0% $0.00
AJG Arthur J Gallagher & Co $94.28 2020-01-08 09:52:30 $94.28 0% $0.00
AIZ Assurant, Inc. $102.58 2020-01-08 09:52:30 $102.58 0% $0.00
T AT&T Inc. $30.86 2020-01-08 09:52:30 $30.86 0% $0.00
ADSK Autodesk, Inc. $210.38 2020-01-08 09:52:30 $210.38 0% $0.00
ADP Automatic Data Processing $146.49 2020-01-08 09:52:30 $146.49 0% $0.00
AZO AutoZone, Inc. $1,147.86 2020-01-08 09:52:30 $1,147.86 0% $0.00
AVB AvalonBay Communities Inc $156.01 2020-01-08 09:52:30 $156.01 0% $0.00
AVY Avery Dennison Corp $110.67 2020-01-08 09:52:30 $110.67 0% $0.00
BHGE Baker Hughes A GE Co $21.29 2020-01-08 09:52:30 $21.29 0% $0.00
BLL Ball Corporation $71.26 2020-01-08 09:52:30 $71.26 0% $0.00
BAC Bank of America Corp $24.12 2020-01-08 09:52:30 $24.12 0% $0.00
BK Bank of New York Mellon Corp $37.17 2020-01-08 09:52:30 $37.17 0% $0.00
BAX Baxter International Inc $90.01 2020-01-08 09:52:30 $90.01 0% $0.00
BBT BB&T Corporation $0.31 2020-01-08 09:52:30 $0.31 0% $0.00
BDX Becton Dickinson and Co $246.93 2020-01-08 09:52:30 $246.93 0% $0.00
BRK.B Berkshire Hathaway Inc. Class B $226.48 2020-02-10 11:40:20 $185.58 -18.06% $10,228.75
BBY Best Buy Co Inc $78.09 2020-02-10 11:40:20 $78.09 0% $0.00
BIIB Biogen Inc $307.09 2020-02-10 11:40:20 $307.09 0% $0.00
BTC Bitcoin $7,108.87 2020-01-02 00:49:11 $9,532.67 34.1% $46,567.18
BLK BlackRock, Inc. $528.64 2020-01-02 00:49:11 $528.64 0% $0.00
BA Boeing Co $324.17 2020-01-17 15:06:09 $145.85 -55.01% $15,405.19
BKNG Booking Holdings Inc $1,639.42 2020-01-17 15:06:09 $1,639.42 0% $0.00
BWA BorgWarner Inc. $32.15 2020-01-17 15:06:09 $32.15 0% $0.00
BXP Boston Properties, Inc. $85.98 2020-01-17 15:06:09 $85.98 0% $0.00
BSX Boston Scientific Corporation $37.99 2020-01-17 15:06:09 $37.99 0% $0.00
BHF Brighthouse Financial Inc $29.71 2020-01-17 15:06:09 $29.71 0% $0.00
BMY Bristol-Myers Squibb Co $59.72 2020-01-17 15:06:09 $59.72 0% $0.00
AVGO Broadcom Inc $291.27 2020-01-17 15:06:09 $291.27 0% $0.00
BR Broadridge Financial Solutions, Inc. $121.10 2020-01-17 15:06:09 $121.10 0% $0.00
BF.B Brown-Forman Corporation Class B $65.93 2020-01-17 15:06:09 $65.93 0% $0.00
CHRW C.H. Robinson Worldwide Inc $81.13 2020-01-17 15:06:09 $81.13 0% $0.00
COG Cabot Oil & Gas Corporation $19.84 2020-01-17 15:06:09 $19.84 0% $0.00
CDNS Cadence Design Systems Inc $91.29 2020-01-17 15:06:09 $91.29 0% $0.00
CPB Campbell Soup Company $50.98 2020-01-17 15:06:09 $50.98 0% $0.00
COF Capital One Financial Corp. $68.04 2020-01-17 15:06:09 $68.04 0% $0.00
CAH Cardinal Health Inc $54.69 2020-01-17 15:06:09 $54.69 0% $0.00
KMX CarMax, Inc $88.05 2020-01-17 15:06:09 $88.05 0% $0.00
CCL Carnival Corp $15.74 2020-01-17 15:06:09 $15.74 0% $0.00
CAT Caterpillar Inc. $120.13 2020-01-17 15:06:09 $120.13 0% $0.00
CBOE Cboe Global Markets Inc $106.46 2020-01-17 15:06:09 $106.46 0% $0.00
CBRE CBRE Group Inc $43.98 2020-01-17 15:06:09 $43.98 0% $0.00
CBS CBS Corporation Common Stock $0.06 2020-01-17 15:06:09 $0.06 0% $0.00
CELG Celgene Corporation $96.70 2020-01-17 15:06:09 $96.70 0% $0.00
CNC Centene Corp $66.25 2020-01-17 15:06:09 $66.25 0% $0.00
CNP CenterPoint Energy, Inc. $17.78 2020-01-17 15:06:09 $17.78 0% $0.00
CTL Centurylink Inc $9.83 2020-01-17 15:06:09 $9.83 0% $0.00
CERN Cerner Corporation $72.90 2020-01-17 15:06:09 $72.90 0% $0.00
CF CF Industries Holdings, Inc. $29.37 2020-01-17 15:06:09 $29.37 0% $0.00
SCHW Charles Schwab Corporation Common Stock $35.91 2020-01-17 15:06:09 $35.91 0% $0.00
CHTR Charter Communications Inc $544.00 2020-01-17 15:06:09 $544.00 0% $0.00
CVX Chevron Corporation $91.70 2020-01-17 15:06:09 $91.70 0% $0.00
CMG Chipotle Mexican Grill, Inc. $1,003.91 2020-01-17 15:06:09 $1,003.91 0% $0.00
CB Chubb Ltd $121.94 2020-01-17 15:06:09 $121.94 0% $0.00
CHD Church & Dwight Co., Inc. $75.07 2020-01-17 15:06:09 $75.07 0% $0.00
CI Cigna Holding Co $197.32 2020-01-17 15:06:09 $197.32 0% $0.00
XEC Cimarex Energy Co $26.28 2020-01-17 15:06:09 $26.28 0% $0.00
CINF Cincinnati Financial Corporation $58.95 2020-01-17 15:06:09 $58.95 0% $0.00
CTAS Cintas Corporation $247.96 2020-01-17 15:06:09 $247.96 0% $0.00
CSCO Cisco Systems, Inc. $47.82 2020-01-17 15:06:09 $47.82 0% $0.00
C Citigroup Inc $47.91 2020-01-17 15:06:09 $47.91 0% $0.00
CFG Citizens Financial Group Inc $24.10 2020-01-17 15:06:09 $24.10 0% $0.00
CTXS Citrix Systems, Inc. $148.12 2020-01-17 15:06:09 $148.12 0% $0.00
CLX Clorox Co $206.25 2020-01-17 15:06:09 $206.25 0% $0.00
CME CME Group Inc $182.60 2020-01-17 15:06:09 $182.60 0% $0.00
CMS CMS Energy Corporation $58.58 2020-01-17 15:06:09 $58.58 0% $0.00
CTSH Cognizant Technology Solutions Corp $53.00 2020-01-17 15:06:09 $53.00 0% $0.00
CL Colgate-Palmolive Company $72.33 2020-01-17 15:06:09 $72.33 0% $0.00
CMCSA Comcast Corporation $39.60 2020-01-17 15:06:09 $39.60 0% $0.00
CMA Comerica Incorporated $36.35 2020-01-17 15:06:09 $36.35 0% $0.00
CAG Conagra Brands Inc $34.79 2020-01-17 15:06:09 $34.79 0% $0.00
CXO Concho Resources Inc $54.52 2020-01-17 15:06:09 $54.52 0% $0.00
COP ConocoPhillips $42.18 2020-01-17 15:06:09 $42.18 0% $0.00
ED Consolidated Edison, Inc. $75.06 2020-01-17 15:06:09 $75.06 0% $0.00
STZ Constellation Brands, Inc. Class A $172.70 2020-01-17 15:06:09 $172.70 0% $0.00
COO Cooper Companies Inc $316.98 2020-01-17 15:06:09 $316.98 0% $0.00
CPRT Copart, Inc. $89.39 2020-01-17 15:06:09 $89.39 0% $0.00
GLW Corning Incorporated $22.79 2020-01-17 15:06:09 $22.79 0% $0.00
COST Costco Wholesale Corporation $308.47 2020-01-17 15:06:09 $308.47 0% $0.00
COTY Coty Inc $3.63 2020-01-17 15:06:09 $3.63 0% $0.00
CCI CROWN CASTLE IN/SH SH $172.16 2020-01-17 15:06:09 $172.16 0% $0.00
CSX CSX Corporation $71.58 2020-01-17 15:06:09 $71.58 0% $0.00
CMI Cummins Inc. $169.60 2020-01-17 15:06:09 $169.60 0% $0.00
CVS CVS Health Corp $72.49 2020-01-08 09:53:36 $65.57 -9.55% $144.98
DHI D. R. Horton Inc $55.30 2020-01-08 09:53:36 $55.30 0% $0.00
DHR Danaher Corporation $166.61 2020-01-08 09:53:36 $166.61 0% $0.00
DRI Darden Restaurants, Inc. $76.86 2020-01-08 09:53:36 $76.86 0% $0.00
DVA Davita Inc $80.96 2020-01-08 09:53:36 $80.96 0% $0.00
DE Deere & Company $152.12 2020-01-08 09:53:36 $152.12 0% $0.00
DAL Delta Air Lines, Inc. $25.21 2020-01-08 09:53:36 $25.21 0% $0.00
XRAY DENTSPLY SIRONA Inc $46.52 2020-01-08 09:53:36 $46.52 0% $0.00
DVN Devon Energy Corp $10.81 2020-01-08 09:53:36 $10.81 0% $0.00
FANG Diamondback Energy Inc $42.58 2020-01-08 09:53:36 $42.58 0% $0.00
DLR DIGITAL RLTY TR/SH $143.56 2020-01-08 09:53:36 $143.56 0% $0.00
DFS Discover Financial Services $47.51 2020-01-08 09:53:36 $47.51 0% $0.00
DISCA DISCOVERY COMMUNICATIONS INC. Common Stock $21.75 2020-01-08 09:53:36 $21.75 0% $0.00
DISCK Discovery Inc Series C $19.59 2020-01-08 09:53:36 $19.59 0% $0.00
DISH DISH Network Corp $31.65 2020-01-08 09:53:36 $31.65 0% $0.00
DG Dollar General Corp. $191.51 2020-01-08 09:53:36 $191.51 0% $0.00
DLTR Dollar Tree, Inc. $97.87 2020-01-08 09:53:36 $97.87 0% $0.00
D Dominion Energy Inc $85.01 2020-01-08 09:53:36 $85.01 0% $0.00
DOV Dover Corp $97.25 2020-01-08 09:53:36 $97.25 0% $0.00
DWDP DowDuPont Inc $30.52 2020-01-08 09:53:36 $30.52 0% $0.00
DTE DTE Energy Co $107.57 2020-01-08 09:53:36 $107.57 0% $0.00
DUK Duke Energy Corp $85.63 2020-01-08 09:53:36 $85.63 0% $0.00
DRE Duke Realty Corp $34.48 2020-01-08 09:53:36 $34.48 0% $0.00
DXC DXC Technology Co $14.21 2020-01-08 09:53:36 $14.21 0% $0.00
ETFC E*TRADE Financial Corp $45.54 2020-01-08 09:53:36 $45.54 0% $0.00
EMN Eastman Chemical Company $68.08 2020-01-08 09:53:36 $68.08 0% $0.00
ETN Eaton Corporation PLC $84.90 2020-01-08 09:53:36 $84.90 0% $0.00
EBAY eBay Inc $36.11 2020-01-02 05:39:26 $45.54 26.11% $361.10
ECL Ecolab Inc. $212.58 2020-01-02 05:39:26 $212.58 0% $0.00
EIX Edison International $58.11 2020-01-02 05:39:26 $58.11 0% $0.00
EW Edwards Lifesciences Corp $224.72 2020-01-02 05:39:26 $224.72 0% $0.00
EA Electronic Arts Inc. $122.88 2020-01-02 05:39:26 $122.88 0% $0.00
LLY Eli Lilly And Co $152.95 2020-01-02 05:39:26 $152.95 0% $0.00
EMR Emerson Electric Co. $61.02 2020-01-02 05:39:26 $61.02 0% $0.00
ETR Entergy Corporation $101.82 2020-01-02 05:39:26 $101.82 0% $0.00
EOG EOG Resources Inc $50.97 2020-01-02 05:39:26 $50.97 0% $0.00
EFX Equifax Inc. $153.56 2020-01-02 05:39:26 $153.56 0% $0.00
EQIX Equinix Inc $697.63 2020-01-02 05:39:26 $697.63 0% $0.00
EQR Equity Residential $60.56 2020-01-02 05:39:26 $60.56 0% $0.00
ESS Essex Property Trust Inc $242.77 2020-01-02 05:39:26 $242.77 0% $0.00
EL Estee Lauder Companies Inc $197.47 2020-01-02 05:39:26 $197.47 0% $0.00
RE Everest Re Group Ltd $198.41 2020-01-02 05:39:26 $198.41 0% $0.00
EVRG Evergy Inc $61.69 2020-01-02 05:39:26 $61.69 0% $0.00
ES Eversource Energy $83.70 2020-01-02 05:39:26 $83.70 0% $0.00
EXC Exelon Corporation $38.31 2020-01-02 05:39:26 $38.31 0% $0.00
EXPE Expedia Group Inc $79.48 2020-01-02 05:39:26 $79.48 0% $0.00
EXPD Expeditors International of Washington $76.37 2020-01-02 05:39:26 $76.37 0% $0.00
ESRX EXPRESS SCRIPTS/SH $94.19 2020-01-02 05:39:26 $94.19 0% $0.00
EXR Extra Space Storage, Inc. $96.75 2020-01-02 05:39:26 $96.75 0% $0.00
XOM Exxon Mobil Corporation $45.47 2020-01-02 05:39:26 $45.47 0% $0.00
FFIV F5 Networks, Inc. $144.92 2020-01-02 05:39:26 $144.92 0% $0.00
FB Facebook, Inc. Common Stock $225.09 2020-01-02 05:39:26 $225.09 0% $0.00
FAST Fastenal Company $41.26 2020-01-02 05:39:26 $41.26 0% $0.00
FRT Federal Realty Investment Trust $79.91 2020-01-02 05:39:26 $79.91 0% $0.00
FDX FedEx Corporation $130.56 2020-01-02 05:39:26 $130.56 0% $0.00
FIS Fidelity National Information Servcs Inc $138.83 2020-01-02 05:39:26 $138.83 0% $0.00
FITB Fifth Third Bancorp $19.39 2020-01-02 05:39:26 $19.39 0% $0.00
FE FirstEnergy Corp. $42.26 2020-01-02 05:39:26 $42.26 0% $0.00
FISV Fiserv Inc $106.77 2020-01-02 05:39:26 $106.77 0% $0.00
FLT FleetCor Technologies, Inc. $243.79 2020-01-02 05:39:26 $243.79 0% $0.00
FLIR FLIR Systems, Inc. $46.20 2020-01-02 05:39:26 $46.20 0% $0.00
FLS Flowserve Corp $26.10 2020-01-02 05:39:26 $26.10 0% $0.00
FLR Fluor Corporation (NEW) $11.61 2020-01-02 05:39:26 $11.61 0% $0.00
FMC FMC Corp $98.41 2020-01-02 05:39:26 $98.41 0% $0.00
FL Foot Locker, Inc. $27.70 2020-01-02 05:39:26 $27.70 0% $0.00
F Ford Motor Company $5.71 2020-01-02 05:39:26 $5.71 0% $0.00
FTNT Fortinet Inc $139.20 2020-01-02 05:39:26 $139.20 0% $0.00
FTV Fortive Corp $60.98 2020-01-02 05:39:26 $60.98 0% $0.00
FBHS Fortune Brands Home & Security Inc $60.96 2020-01-02 05:39:26 $60.96 0% $0.00
BEN Franklin Resources, Inc. $18.87 2020-01-02 05:39:26 $18.87 0% $0.00
FCX Freeport-McMoRan Inc $9.07 2020-01-02 05:39:26 $9.07 0% $0.00
GPS Gap Inc $8.90 2020-01-02 05:39:26 $8.90 0% $0.00
GRMN Garmin Ltd. $90.17 2020-01-02 05:39:26 $90.17 0% $0.00
IT Gartner Inc $121.70 2020-01-02 05:39:26 $121.70 0% $0.00
GD General Dynamics Corporation $146.83 2020-01-02 05:39:26 $146.83 0% $0.00
GE General Electric Company $6.57 2020-01-02 05:39:26 $6.57 0% $0.00
GIS General Mills, Inc. $63.04 2020-01-02 05:39:26 $63.04 0% $0.00
GM General Motors Company $25.88 2020-01-02 05:39:26 $25.88 0% $0.00
GPC Genuine Parts Company $83.41 2020-01-02 05:39:26 $83.41 0% $0.00
GILD Gilead Sciences, Inc. $77.83 2020-01-02 05:39:26 $77.83 0% $0.00
GPN Global Payments Inc $179.49 2020-01-02 05:39:26 $179.49 0% $0.00
GS Goldman Sachs Group Inc $196.49 2020-01-02 05:39:26 $196.49 0% $0.00
GT Goodyear Tire & Rubber Co $7.61 2020-01-02 05:39:26 $7.61 0% $0.00
HRB H & R Block Inc $17.00 2020-01-02 05:39:26 $17.00 0% $0.00
HAL Halliburton Company $11.75 2020-01-02 05:39:26 $11.75 0% $0.00
HBI Hanesbrands Inc. $9.86 2020-01-02 05:39:26 $9.86 0% $0.00
HOG Harley-Davidson Inc $21.34 2020-01-02 05:39:26 $21.34 0% $0.00
HRS Harris Corporation $176.00 2020-01-02 05:39:26 $176.00 0% $0.00
HIG Hartford Financial Services Group Inc $38.29 2020-01-02 05:39:26 $38.29 0% $0.00
HAS Hasbro, Inc. $73.51 2020-01-02 05:39:26 $73.51 0% $0.00
HCA HCA Healthcare Inc $106.90 2020-01-02 05:39:26 $106.90 0% $0.00
HCP HCP, Inc. $34.59 2020-01-02 05:39:26 $34.59 0% $0.00
HP Helmerich & Payne, Inc. $20.13 2020-01-02 05:39:26 $20.13 0% $0.00
HSIC Henry Schein, Inc. $60.72 2020-01-02 05:39:26 $60.72 0% $0.00
HSY Hershey Co $135.68 2020-01-02 05:39:26 $135.68 0% $0.00
HES Hess Corp. $47.47 2020-01-02 05:39:26 $47.47 0% $0.00
HPE Hewlett Packard Enterprise Co $9.71 2020-01-02 05:39:26 $9.71 0% $0.00
HLT Hilton Hotels Corporation Common Stock $79.31 2020-01-02 05:39:26 $79.31 0% $0.00
HFC HollyFrontier Corp $31.45 2020-01-02 05:39:26 $31.45 0% $0.00
HOLX Hologic, Inc. $53.00 2020-01-02 05:39:26 $53.00 0% $0.00
HD Home Depot Inc $248.48 2020-01-02 05:39:26 $248.48 0% $0.00
HON Honeywell International Inc. $145.85 2020-01-02 05:39:26 $145.85 0% $0.00
HRL Hormel Foods Corp $48.83 2020-01-02 05:39:26 $48.83 0% $0.00
HST Host Hotels and Resorts Inc $11.94 2020-01-02 05:39:26 $11.94 0% $0.00
HPQ HP Inc $15.14 2020-01-02 05:39:26 $15.14 0% $0.00
HUM Humana Inc $410.65 2020-01-02 05:39:26 $410.65 0% $0.00
HBAN Huntington Bancshares Incorporated $8.89 2020-01-02 05:39:26 $8.89 0% $0.00
HII Huntington Ingalls Industries Inc $199.89 2020-01-02 05:39:26 $199.89 0% $0.00
IBM IBM Common Stock $124.90 2020-01-02 05:39:26 $124.90 0% $0.00
IDXX IDEXX Laboratories, Inc. $308.88 2020-01-02 05:39:26 $308.88 0% $0.00
INFO IHS Markit Ltd $69.46 2020-01-02 05:39:26 $69.46 0% $0.00
ITW Illinois Tool Works Inc. $172.46 2020-01-02 05:39:26 $172.46 0% $0.00
ILMN Illumina, Inc. $363.05 2020-01-02 05:39:26 $363.05 0% $0.00
INCY Incyte Corporation $101.91 2020-01-02 05:39:26 $101.91 0% $0.00
IR Ingersoll-Rand PLC $28.20 2020-01-02 05:39:26 $28.20 0% $0.00
INTC Intel Corporation $62.93 2020-01-02 05:39:26 $62.93 0% $0.00
ICE Intercontinental Exchange Inc $97.25 2020-01-02 05:39:26 $97.25 0% $0.00
IFF International Flavors & Fragrances Inc $133.19 2020-01-02 05:39:26 $133.19 0% $0.00
IP International Paper Co $34.05 2020-01-02 05:39:26 $34.05 0% $0.00
IPG Interpublic Group of Companies Inc $17.11 2020-01-02 05:39:26 $17.11 0% $0.00
INTU Intuit Inc. $290.32 2020-01-02 05:39:26 $290.32 0% $0.00
ISRG Intuitive Surgical, Inc. $580.03 2020-01-02 05:39:26 $580.03 0% $0.00
IVZ Invesco Ltd. $7.97 2020-01-02 05:39:26 $7.97 0% $0.00
IPGP IPG Photonics Corporation $155.40 2020-01-02 05:39:26 $155.40 0% $0.00
IQV Iqvia Holdings Inc $149.52 2020-01-02 05:39:26 $149.52 0% $0.00
IRM Iron Mountain Inc $25.76 2020-01-02 05:39:26 $25.76 0% $0.00
JBHT J B Hunt Transport Services Inc $119.67 2020-01-02 05:39:26 $119.67 0% $0.00
SJM J M Smucker Co $113.93 2020-01-02 05:39:26 $113.93 0% $0.00
JKHY Jack Henry & Associates, Inc. $180.86 2020-01-02 05:39:26 $180.86 0% $0.00
JEC Jacobs Engineering Group Inc $0.08 2020-01-02 05:39:26 $0.08 0% $0.00
JEF Jefferies Financial Group Inc $14.65 2020-01-02 05:39:26 $14.65 0% $0.00
JNJ Johnson & Johnson $148.75 2020-01-02 05:39:26 $148.75 0% $0.00
JCI Johnson Controls International PLC $31.41 2020-01-02 05:39:26 $31.41 0% $0.00
JPM JPMorgan Chase & Co. $97.31 2020-01-02 05:39:26 $97.31 0% $0.00
JNPR Juniper Networks, Inc. $24.26 2020-01-02 05:39:26 $24.26 0% $0.00
KSU Kansas City Southern $150.52 2020-01-02 05:39:26 $150.52 0% $0.00
K Kellogg Company $65.31 2020-01-02 05:39:26 $65.31 0% $0.00
KEY KeyCorp $11.85 2020-01-02 05:39:26 $11.85 0% $0.00
KEYS Keysight Technologies Inc $108.13 2020-01-02 05:39:26 $108.13 0% $0.00
KMB Kimberly Clark Corp $141.44 2020-01-02 05:39:26 $141.44 0% $0.00
KIM Kimco Realty Corp $11.11 2020-01-02 05:39:26 $11.11 0% $0.00
KMI Kinder Morgan Inc $15.80 2020-01-02 05:39:26 $15.80 0% $0.00
KLAC KLA-Tencor Corp $177.41 2020-01-08 09:55:12 $175.96 -0.82% $177.41
KHC Kraft Heinz Co $30.47 2020-01-08 09:55:12 $30.47 0% $0.00
KR Kroger Co $32.62 2020-01-08 09:55:12 $32.62 0% $0.00
LB L Brands Inc $16.19 2020-01-08 09:55:12 $16.19 0% $0.00
LLL L3 Technologies Inc $0.25 2020-01-08 09:55:12 $0.25 0% $0.00
LH Laboratory Corp. of America Holdings $175.32 2020-01-08 09:55:12 $175.32 0% $0.00
LRCX Lam Research Corporation $273.67 2020-01-08 09:55:12 $273.67 0% $0.00
LW Lamb Weston Holdings Inc $60.06 2020-01-08 09:55:12 $60.06 0% $0.00
LEG Leggett & Platt, Inc. $30.59 2020-01-08 09:55:12 $30.59 0% $0.00
LEN Lennar Corporation $60.46 2020-01-08 09:55:12 $60.46 0% $0.00
LNC Lincoln National Corporation $37.93 2020-01-08 09:55:12 $37.93 0% $0.00
LIN Linde PLC $202.34 2020-01-08 09:55:12 $202.34 0% $0.00
LKQ LKQ Corporation $27.46 2020-01-08 09:55:12 $27.46 0% $0.00
LMT Lockheed Martin Corporation $388.44 2020-01-08 09:55:12 $388.44 0% $0.00
L Loews Corporation $33.24 2020-01-08 09:55:12 $33.24 0% $0.00
LYB LyondellBasell Industries NV $63.76 2020-01-08 09:55:12 $63.76 0% $0.00
MTB M&T Bank Corporation $105.66 2020-01-08 09:55:12 $105.66 0% $0.00
MAC Macerich Co $6.81 2020-01-08 09:55:12 $6.81 0% $0.00
MRO Marathon Oil Corporation $5.34 2020-01-08 09:55:12 $5.34 0% $0.00
MPC Marathon Petroleum Corp $35.14 2020-01-08 09:55:12 $35.14 0% $0.00
MAR Marriott International Inc $88.50 2020-01-08 09:55:12 $88.50 0% $0.00
MMC Marsh & McLennan Companies, Inc. $105.92 2020-01-08 09:55:12 $105.92 0% $0.00
MLM Martin Marietta Materials, Inc. $192.09 2020-01-08 09:55:12 $192.09 0% $0.00
MAS Masco Corp $46.65 2020-01-08 09:55:12 $46.65 0% $0.00
MA Mastercard Inc $298.59 2020-01-02 05:37:57 $300.89 0.77% $4,069.70
MAT Mattel, Inc. $9.21 2020-01-02 05:37:57 $9.21 0% $0.00
MXIM Maxim Integrated Products Inc. $57.68 2020-01-02 05:37:57 $57.68 0% $0.00
MKC MCCORMICK & CO /SH NV $175.16 2020-01-02 05:37:57 $175.16 0% $0.00
MCK McKesson Corporation $158.67 2020-01-02 05:37:57 $158.67 0% $0.00
MDT Medtronic PLC $98.58 2020-01-02 05:37:57 $98.58 0% $0.00
MRK Merck & Co., Inc. $80.72 2020-01-02 05:37:57 $80.72 0% $0.00
MET Metlife Inc $36.01 2020-01-02 05:37:57 $36.01 0% $0.00
MTD Mettler-Toledo International Inc. $795.00 2020-01-02 05:37:57 $795.00 0% $0.00
MGM MGM Resorts International $17.18 2020-01-02 05:37:57 $17.18 0% $0.00
KORS Michael Kors Holdings Ltd $37.92 2020-01-02 05:37:57 $37.92 0% $0.00
MCHP Microchip Technology Inc. $96.02 2020-01-02 05:37:57 $96.02 0% $0.00
MU Micron Technology, Inc. $47.91 2020-01-02 05:37:57 $47.91 0% $0.00
MSFT Microsoft Corporation $172.78 2020-01-31 04:02:39 $183.25 6.06% $43,553.00
MAA Mid-America Apartment Communities Inc $116.36 2020-01-31 04:02:39 $116.36 0% $0.00
MHK Mohawk Industries, Inc. $93.20 2020-01-31 04:02:39 $93.20 0% $0.00
TAP Molson Coors Brewing Co Class B $37.96 2020-01-31 04:02:39 $37.96 0% $0.00
MDLZ MONDELEZ INTERNATIONAL INC Common Stock $52.12 2020-01-31 04:02:39 $52.12 0% $0.00
MNST Monster Beverage Corp $71.91 2020-01-31 04:02:39 $71.91 0% $0.00
MS Morgan Stanley $44.20 2020-01-31 04:02:39 $44.20 0% $0.00
MOS Mosaic Co $12.09 2020-01-31 04:02:39 $12.09 0% $0.00
MSI Motorola Solutions Inc $135.33 2020-01-31 04:02:39 $135.33 0% $0.00
MSCI Msci Inc $328.85 2020-01-31 04:02:39 $328.85 0% $0.00
MYL Mylan NV $17.07 2020-01-31 04:02:39 $17.07 0% $0.00
NDAQ Nasdaq Inc $118.46 2020-01-31 04:02:39 $118.46 0% $0.00
NOV National-Oilwell Varco, Inc. $12.47 2020-01-31 04:02:39 $12.47 0% $0.00
NKTR Nektar Therapeutics $21.70 2020-01-31 04:02:39 $21.70 0% $0.00
NTAP NetApp Inc. $44.54 2020-01-31 04:02:39 $44.54 0% $0.00
NFLX Netflix, Inc. $335.66 2020-01-10 08:33:03 $419.73 25.05% $21,558.96
NWL Newell Brands Inc $13.15 2020-01-10 08:33:03 $13.15 0% $0.00
NFX Newfield Exploration Co. $4.37 2020-01-10 08:33:03 $4.37 0% $0.00
NEM Newmont Mining Corp $46.78 2020-02-20 09:33:36 $58.47 24.99% $42,569.38
NWSA News Corp Class A $12.25 2020-02-20 09:33:36 $12.25 0% $0.00
NWS News Corp Class B $12.26 2020-02-20 09:33:36 $12.26 0% $0.00
NEE NextEra Energy Inc $255.56 2020-02-20 09:33:36 $255.56 0% $0.00
NLSN Nielsen Holdings PLC $13.89 2020-02-20 09:33:36 $13.89 0% $0.00
NKE Nike Inc $101.65 2020-01-08 09:57:27 $98.58 -3.02% $203.30
NI NiSource Inc. $23.83 2020-01-08 09:57:27 $23.83 0% $0.00
NBL Noble Energy, Inc. $8.73 2020-01-08 09:57:27 $8.73 0% $0.00
JWN Nordstrom, Inc. $16.13 2020-01-08 09:57:27 $16.13 0% $0.00
NSC Norfolk Southern Corp. $178.29 2020-01-08 09:57:27 $178.29 0% $0.00
NTRS Northern Trust Corporation $79.01 2020-01-08 09:57:27 $79.01 0% $0.00
NOC Northrop Grumman Corporation $335.20 2020-01-08 09:57:27 $335.20 0% $0.00
NCLH Norwegian Cruise Line Holdings Ltd $15.66 2020-01-08 09:57:27 $15.66 0% $0.00
NRG NRG Energy Inc $36.05 2020-01-08 09:57:27 $36.05 0% $0.00
NUE Nucor Corporation $42.26 2020-01-08 09:57:27 $42.26 0% $0.00
NVDA NVIDIA Corporation $245.44 2020-03-10 02:27:57 $355.02 44.65% $12,517.44
OXY Occidental Petroleum Corporation $12.95 2020-03-10 02:27:57 $12.95 0% $0.00
OMC Omnicom Group Inc. $54.79 2020-03-10 02:27:57 $54.79 0% $0.00
OKE ONEOK, Inc. $36.69 2020-03-10 02:27:57 $36.69 0% $0.00
ORCL Oracle Corporation $53.77 2020-03-10 02:27:57 $53.77 0% $0.00
PCAR PACCAR Inc $73.86 2020-03-10 02:27:57 $73.86 0% $0.00
PKG Packaging Corp Of America $101.41 2020-03-10 02:27:57 $101.41 0% $0.00
PH Parker-Hannifin Corp $179.97 2020-03-10 02:27:57 $179.97 0% $0.00
PAYX Paychex, Inc. $72.28 2020-03-10 02:27:57 $72.28 0% $0.00
PYPL Paypal Holdings Inc $155.01 2020-03-10 02:27:57 $155.01 0% $0.00
PNR Pentair PLC $39.14 2020-03-10 02:27:57 $39.14 0% $0.00
PEP PepsiCo, Inc. $131.55 2020-03-10 02:27:57 $131.55 0% $0.00
PKI PerkinElmer, Inc. $100.47 2020-03-10 02:27:57 $100.47 0% $0.00
PRGO Perrigo Company PLC $54.77 2020-03-10 02:27:57 $54.77 0% $0.00
PFE Pfizer Inc. $38.19 2020-03-10 02:27:57 $38.19 0% $0.00
PCG PG&E Corporation $11.86 2020-03-10 02:27:57 $11.86 0% $0.00
PM Philip Morris International Inc. $73.36 2020-03-10 02:27:57 $73.36 0% $0.00
PSX Phillips 66 $78.26 2020-03-10 02:27:57 $78.26 0% $0.00
PNW Pinnacle West Capital Corporation $77.90 2020-03-10 02:27:57 $77.90 0% $0.00
PXD Pioneer Natural Resources $91.60 2020-03-10 02:27:57 $91.60 0% $0.00
PNC PNC Financial Services Group Inc $114.04 2020-03-10 02:27:57 $114.04 0% $0.00
PPG PPG Industries, Inc. $101.67 2020-03-10 02:27:57 $101.67 0% $0.00
PPL PPL Corp $27.94 2020-03-10 02:27:57 $27.94 0% $0.00
PFG Principal Financial Group Inc $38.62 2020-03-10 02:27:57 $38.62 0% $0.00
PG Procter & Gamble Co $124.90 2020-01-02 05:41:26 $115.92 -7.19% $1,249.00
PGR Progressive Corp $77.68 2020-01-02 05:41:26 $77.68 0% $0.00
PLD Prologis Inc $91.50 2020-01-02 05:41:26 $91.50 0% $0.00
PRU Prudential Financial Inc $60.96 2020-01-02 05:41:26 $60.96 0% $0.00
PEG Public Service Enterprise Group Inc. $51.04 2020-01-02 05:41:26 $51.04 0% $0.00
PSA Public Storage $202.74 2020-01-02 05:41:26 $202.74 0% $0.00
PHM PulteGroup, Inc. $33.97 2020-01-02 05:41:26 $33.97 0% $0.00
PVH PVH Corp $45.47 2020-01-02 05:41:26 $45.47 0% $0.00
QRVO Qorvo Inc $104.74 2020-01-02 05:41:26 $104.74 0% $0.00
QCOM QUALCOMM, Inc. $80.88 2020-01-02 05:41:26 $80.88 0% $0.00
PWR Quanta Services Inc $36.93 2020-01-02 05:41:26 $36.93 0% $0.00
DGX Quest Diagnostics Inc $118.28 2020-01-02 05:41:26 $118.28 0% $0.00
RL Ralph Lauren Corp $75.51 2020-01-02 05:41:26 $75.51 0% $0.00
RJF Raymond James Financial, Inc. $69.28 2020-01-02 05:41:26 $69.28 0% $0.00
RTN Raytheon Company $61.00 2020-01-02 05:41:26 $61.00 0% $0.00
O Realty Income Corp $55.31 2020-01-02 05:41:26 $55.31 0% $0.00
RHT Red Hat Inc $0.33 2020-01-02 05:41:26 $0.33 0% $0.00
REG Regency Centers Corp $42.79 2020-01-02 05:41:26 $42.79 0% $0.00
REGN Regeneron Pharmaceuticals Inc $612.81 2020-01-02 05:41:26 $612.81 0% $0.00
RF Regions Financial Corp $11.31 2020-01-02 05:41:26 $11.31 0% $0.00
RSG Republic Services, Inc. $85.46 2020-01-02 05:41:26 $85.46 0% $0.00
RMD ResMed Inc. $160.82 2020-01-02 05:41:26 $160.82 0% $0.00
RHI Robert Half International Inc. $50.74 2020-01-02 05:41:26 $50.74 0% $0.00
ROK Rockwell Automation $216.16 2020-01-02 05:41:26 $216.16 0% $0.00
ROL Rollins, Inc. $33.75 2020-01-10 06:57:33 $41.80 23.85% $1,687.50
ROP Roper Technologies Inc $393.80 2020-01-10 06:57:33 $393.80 0% $0.00
ROST Ross Stores, Inc. $96.96 2020-01-10 06:57:33 $96.96 0% $0.00
RCL Royal Caribbean Cruises Ltd $51.87 2020-01-10 06:57:33 $51.87 0% $0.00
SPGI S&P Global Inc $325.02 2020-01-10 06:57:33 $325.02 0% $0.00
CRM salesforce.com, inc. $174.79 2020-01-10 06:57:33 $174.79 0% $0.00
SBAC SBA Communications Corporation $314.13 2020-01-10 06:57:33 $314.13 0% $0.00
SCG SCANA Corporation $2.23 2020-01-10 06:57:33 $2.23 0% $0.00
SLB Schlumberger Limited. $18.47 2020-01-10 06:57:33 $18.47 0% $0.00
STX Seagate Technology PLC $53.04 2020-01-10 06:57:33 $53.04 0% $0.00
SEE Sealed Air Corp $32.10 2020-01-10 06:57:33 $32.10 0% $0.00
SRE Sempra Energy $126.31 2020-01-10 06:57:33 $126.31 0% $0.00
SHW Sherwin-Williams Co $593.85 2020-01-10 06:57:33 $593.85 0% $0.00
SPG Simon Property Group Inc $57.70 2020-01-10 06:57:33 $57.70 0% $0.00
SWKS Skyworks Solutions Inc $118.54 2020-01-10 06:57:33 $118.54 0% $0.00
SLG SL Green Realty Corp $42.12 2020-01-10 06:57:33 $42.12 0% $0.00
SNA Snap-on Incorporated $129.69 2020-01-10 06:57:33 $129.69 0% $0.00
SO Southern Co $57.07 2020-01-10 06:57:33 $57.07 0% $0.00
LUV Southwest Airlines Co $32.10 2020-01-10 06:57:33 $32.10 0% $0.00
SPY SPDR S&P 500 ETF $321.86 2020-01-02 00:49:11 $304.32 -5.45% $49,721.61
SWK Stanley Black & Decker, Inc. $125.45 2020-01-02 00:49:11 $125.45 0% $0.00
SBUX Starbucks Corporation $77.99 2020-01-02 00:49:11 $77.99 0% $0.00
STT State Street Corp $60.96 2020-01-02 00:49:11 $60.96 0% $0.00
SYK Stryker Corporation $195.73 2020-01-02 00:49:11 $195.73 0% $0.00
STI SunTrust Banks, Inc. $59.61 2020-01-02 00:49:11 $59.61 0% $0.00
SIVB SVB Financial Group $214.75 2020-01-02 00:49:11 $214.75 0% $0.00
SYMC Symantec Corporation $23.07 2020-01-02 00:49:11 $23.07 0% $0.00
SYF Synchrony Financial $20.37 2020-01-02 00:49:11 $20.37 0% $0.00
SNPS Synopsys, Inc. $180.91 2020-01-02 00:49:11 $180.91 0% $0.00
SYY SYSCO Corporation $55.16 2020-01-02 00:49:11 $55.16 0% $0.00
TROW T. Rowe Price Group Inc $120.90 2020-01-02 00:49:11 $120.90 0% $0.00
TTWO TAKE-TWO INTERACTIVE SOFTWARE, INC Common Stock $136.17 2020-01-02 00:49:11 $136.17 0% $0.00
TPR Tapestry Inc $13.60 2020-01-02 00:49:11 $13.60 0% $0.00
TGT Target Corporation $122.33 2020-01-02 00:49:11 $122.33 0% $0.00
TEL TE Connectivity Ltd $81.25 2020-01-02 00:49:11 $81.25 0% $0.00
FTI TechnipFMC PLC $7.40 2020-01-02 00:49:11 $7.40 0% $0.00
TSLA Tesla Inc $650.57 2020-02-01 04:07:17 $835.00 28.35% $40,364.22
TXN Texas Instruments Incorporated $118.74 2020-02-01 04:07:17 $118.74 0% $0.00
TXT Textron Inc. $30.97 2020-02-01 04:07:17 $30.97 0% $0.00
KO The Coca-Cola Co $58.86 2020-01-31 06:29:14 $46.68 -20.69% $1,182.57
WU The Western Union Company $20.02 2020-01-31 06:29:14 $20.02 0% $0.00
TMO Thermo Fisher Scientific Inc. $349.19 2020-01-31 06:29:14 $349.19 0% $0.00
TIF Tiffany & Co. $128.13 2020-01-31 06:29:14 $128.13 0% $0.00
TJX TJX Companies Inc $52.76 2020-01-31 06:29:14 $52.76 0% $0.00
TSS Total System Services, Inc. $9.20 2020-01-31 06:29:14 $9.20 0% $0.00
TSCO Tractor Supply Company $122.02 2020-01-31 06:29:14 $122.02 0% $0.00
TDG TransDigm Group Incorporated $424.82 2020-01-31 06:29:14 $424.82 0% $0.00
TRV Travelers Companies Inc $106.98 2020-01-31 06:29:14 $106.98 0% $0.00
TRIP Tripadvisor Inc Common Stock $19.28 2020-01-31 06:29:14 $19.28 0% $0.00
FOXA Twenty-First Century Fox Inc Class A $29.17 2020-01-31 06:29:14 $29.17 0% $0.00
FOX Twenty-First Century Fox Inc Class B $28.78 2020-01-31 06:29:14 $28.78 0% $0.00
TWTR Twitter Inc $30.97 2020-01-31 06:29:14 $30.97 0% $0.00
TSN Tyson Foods, Inc. $61.44 2020-01-31 06:29:14 $61.44 0% $0.00
USB U.S. Bancorp $35.56 2020-01-31 06:29:14 $35.56 0% $0.00
UDR UDR, Inc. $36.98 2020-01-31 06:29:14 $36.98 0% $0.00
ULTA Ulta Beauty Inc $244.01 2020-01-31 06:29:14 $244.01 0% $0.00
UAA Under Armour Inc Class A $8.75 2020-01-31 06:29:14 $8.75 0% $0.00
UA Under Armour Inc Class C $7.86 2020-01-31 06:29:14 $7.86 0% $0.00
UNP Union Pacific Corporation $169.86 2020-01-31 06:29:14 $169.86 0% $0.00
UAL United Continental Holdings Inc $28.04 2020-01-31 06:29:14 $28.04 0% $0.00
UPS United Parcel Service, Inc. $99.71 2020-01-31 06:29:14 $99.71 0% $0.00
URI United Rentals, Inc. $138.89 2020-01-31 06:29:14 $138.89 0% $0.00
UTX United Technologies Corporation $97.68 2020-01-31 06:29:14 $97.68 0% $0.00
UNH UnitedHealth Group Inc $304.85 2020-01-31 06:29:14 $304.85 0% $0.00
UHS Universal Health Services, Inc. Class B $105.45 2020-01-31 06:29:14 $105.45 0% $0.00
UNM Unum Group $15.15 2020-01-31 06:29:14 $15.15 0% $0.00
VLO Valero Energy Corporation $66.64 2020-01-31 06:29:14 $66.64 0% $0.00
VEU Vanguard FTSE All-Wld ex-US ETF $53.75 2020-01-02 00:49:11 $45.86 -14.68% $49,757.79
VOO Vanguard S&P 500 ETF $295.80 2020-01-02 00:49:11 $279.75 -5.43% $89,257.31
BND Vanguard Total Bond Market ETF $83.86 2020-01-02 00:49:11 $87.92 4.84% $49,893.10
VTI Vanguard Total Stock Market ETF $163.62 2020-01-02 00:49:11 $153.71 -6.06% $78,270.41
VT Vanguard Total World Stock ETF $80.99 2020-01-02 00:49:11 $72.92 -9.96% $65,242.24
VAR Varian Medical Systems, Inc. $121.39 2020-01-02 00:49:11 $121.39 0% $0.00
VTR Ventas, Inc. $34.95 2020-01-02 00:49:11 $34.95 0% $0.00
VRSN Verisign, Inc. $219.01 2020-01-02 00:49:11 $219.01 0% $0.00
VRSK Verisk Analytics, Inc. $172.68 2020-01-02 00:49:11 $172.68 0% $0.00
VZ Verizon Communications Inc. $57.38 2020-01-02 00:49:11 $57.38 0% $0.00
VRTX Vertex Pharmaceuticals Incorporated $287.96 2020-01-02 00:49:11 $287.96 0% $0.00
VFC VF Corp $56.10 2020-01-02 00:49:11 $56.10 0% $0.00
VIAB Viacom, Inc. Class B $24.37 2020-01-02 00:49:11 $24.37 0% $0.00
V Visa Inc Class A $198.97 2020-02-01 01:03:28 $195.24 -1.87% $5,531.42
VNO Vornado Realty Trust $36.21 2020-02-01 01:03:28 $36.21 0% $0.00
VMC Vulcan Materials Company $108.32 2020-02-01 01:03:28 $108.32 0% $0.00
GWW W W Grainger Inc $309.62 2020-02-01 01:03:28 $309.62 0% $0.00
WBA Walgreens Boots Alliance Inc $42.94 2020-02-01 01:03:28 $42.94 0% $0.00
WMT Walmart Inc $118.84 2020-01-02 05:42:42 $124.06 4.39% $1,188.40
DIS Walt Disney Co $117.30 2020-01-02 05:42:42 $117.30 0% $0.00
WM Waste Management, Inc. $106.75 2020-01-02 05:42:42 $106.75 0% $0.00
WAT Waters Corporation $199.85 2020-01-02 05:42:42 $199.85 0% $0.00
WEC WEC Energy Group Inc $91.73 2020-01-02 05:42:42 $91.73 0% $0.00
WCG WellCare Health Plans, Inc. $265.24 2020-01-02 05:42:42 $265.24 0% $0.00
WFC Wells Fargo & Co $26.47 2020-01-02 05:42:42 $26.47 0% $0.00
WELL Welltower Inc $50.67 2020-01-02 05:42:42 $50.67 0% $0.00
WDC Western Digital Corp $44.37 2020-01-02 05:42:42 $44.37 0% $0.00
WRK Westrock Co $28.06 2020-01-02 05:42:42 $28.06 0% $0.00
WY Weyerhaeuser Co $20.19 2020-01-02 05:42:42 $20.19 0% $0.00
WHR Whirlpool Corporation $121.82 2020-01-02 05:42:42 $121.82 0% $0.00
WMB Williams Companies Inc $20.43 2020-01-02 05:42:42 $20.43 0% $0.00
WLTW Willis Towers Watson PLC $202.90 2020-01-02 05:42:42 $202.90 0% $0.00
WYNN Wynn Resorts, Limited $126.16 2020-02-01 01:02:01 $83.28 -33.99% $10,680.03
XEL Xcel Energy Inc $65.03 2020-02-01 01:02:01 $65.03 0% $0.00
XRX Xerox Corp $15.88 2020-02-01 01:02:01 $15.88 0% $0.00
XLNX Xilinx, Inc. $91.95 2020-02-01 01:02:01 $91.95 0% $0.00
XYL Xylem Inc $66.34 2020-02-01 01:02:01 $66.34 0% $0.00
YUM Yum! Brands, Inc. $89.73 2020-02-01 01:02:01 $89.73 0% $0.00
ZBH Zimmer Biomet Holdings Inc $126.34 2020-02-01 01:02:01 $126.34 0% $0.00
ZION Zions Bancorp $32.91 2020-02-01 01:02:01 $32.91 0% $0.00
ZTS Zoetis Inc $139.39 2020-02-01 01:02:01 $139.39 0% $0.00